sensor_id;sensor_type;location;lat;lon;timestamp;P1;durP1;ratioP1;P2;durP2;ratioP2
14247;SDS011;7208;49.826;6.004;2023-12-20T00:01:50;0.60;;;0.60;;
14247;SDS011;7208;49.826;6.004;2023-12-20T00:04:16;0.93;;;0.90;;
14247;SDS011;7208;49.826;6.004;2023-12-20T00:06:42;1.00;;;0.90;;
14247;SDS011;7208;49.826;6.004;2023-12-20T00:09:09;0.60;;;0.60;;
14247;SDS011;7208;49.826;6.004;2023-12-20T00:11:35;0.50;;;0.50;;
14247;SDS011;7208;49.826;6.004;2023-12-20T00:14:01;0.90;;;0.77;;
14247;SDS011;7208;49.826;6.004;2023-12-20T00:16:27;1.30;;;1.30;;
14247;SDS011;7208;49.826;6.004;2023-12-20T00:18:53;0.97;;;0.90;;
14247;SDS011;7208;49.826;6.004;2023-12-20T00:21:19;0.93;;;0.90;;
14247;SDS011;7208;49.826;6.004;2023-12-20T00:23:45;0.80;;;0.80;;
14247;SDS011;7208;49.826;6.004;2023-12-20T00:26:11;0.80;;;0.80;;
14247;SDS011;7208;49.826;6.004;2023-12-20T00:28:37;0.77;;;0.77;;
14247;SDS011;7208;49.826;6.004;2023-12-20T00:31:03;0.60;;;0.60;;
14247;SDS011;7208;49.826;6.004;2023-12-20T00:33:29;0.57;;;0.57;;
14247;SDS011;7208;49.826;6.004;2023-12-20T00:35:55;0.60;;;0.60;;
14247;SDS011;7208;49.826;6.004;2023-12-20T00:38:21;0.80;;;0.80;;
14247;SDS011;7208;49.826;6.004;2023-12-20T00:40:47;1.07;;;0.97;;
14247;SDS011;7208;49.826;6.004;2023-12-20T00:43:14;1.23;;;1.13;;
14247;SDS011;7208;49.826;6.004;2023-12-20T00:45:40;0.80;;;0.80;;
14247;SDS011;7208;49.826;6.004;2023-12-20T00:48:06;0.90;;;0.90;;
14247;SDS011;7208;49.826;6.004;2023-12-20T00:50:33;1.40;;;1.30;;
14247;SDS011;7208;49.826;6.004;2023-12-20T00:52:59;1.00;;;1.00;;
14247;SDS011;7208;49.826;6.004;2023-12-20T00:55:25;0.93;;;0.93;;
14247;SDS011;7208;49.826;6.004;2023-12-20T00:57:51;0.90;;;0.90;;
14247;SDS011;7208;49.826;6.004;2023-12-20T01:00:18;0.90;;;0.90;;
14247;SDS011;7208;49.826;6.004;2023-12-20T01:02:44;1.00;;;0.90;;
14247;SDS011;7208;49.826;6.004;2023-12-20T01:05:14;0.97;;;0.97;;
14247;SDS011;7208;49.826;6.004;2023-12-20T01:07:40;0.80;;;0.80;;
14247;SDS011;7208;49.826;6.004;2023-12-20T01:10:06;1.20;;;1.10;;
14247;SDS011;7208;49.826;6.004;2023-12-20T01:12:32;1.00;;;0.97;;
14247;SDS011;7208;49.826;6.004;2023-12-20T01:14:58;1.07;;;1.03;;
14247;SDS011;7208;49.826;6.004;2023-12-20T01:17:25;1.10;;;1.03;;
14247;SDS011;7208;49.826;6.004;2023-12-20T01:19:51;1.50;;;1.10;;
14247;SDS011;7208;49.826;6.004;2023-12-20T01:22:17;1.20;;;1.10;;
14247;SDS011;7208;49.826;6.004;2023-12-20T01:24:43;1.10;;;1.00;;
14247;SDS011;7208;49.826;6.004;2023-12-20T01:27:09;1.03;;;0.97;;
14247;SDS011;7208;49.826;6.004;2023-12-20T01:29:35;1.20;;;1.10;;
14247;SDS011;7208;49.826;6.004;2023-12-20T01:32:01;1.17;;;1.07;;
14247;SDS011;7208;49.826;6.004;2023-12-20T01:34:27;1.50;;;1.37;;
14247;SDS011;7208;49.826;6.004;2023-12-20T01:36:53;1.20;;;1.10;;
14247;SDS011;7208;49.826;6.004;2023-12-20T01:39:19;1.40;;;1.30;;
14247;SDS011;7208;49.826;6.004;2023-12-20T01:41:45;1.87;;;1.53;;
14247;SDS011;7208;49.826;6.004;2023-12-20T01:44:11;1.23;;;1.20;;
14247;SDS011;7208;49.826;6.004;2023-12-20T01:46:37;1.70;;;1.60;;
14247;SDS011;7208;49.826;6.004;2023-12-20T01:49:04;1.17;;;0.97;;
14247;SDS011;7208;49.826;6.004;2023-12-20T01:51:30;1.90;;;1.70;;
14247;SDS011;7208;49.826;6.004;2023-12-20T01:53:56;1.23;;;1.10;;
14247;SDS011;7208;49.826;6.004;2023-12-20T01:56:24;2.13;;;1.60;;
14247;SDS011;7208;49.826;6.004;2023-12-20T01:58:50;3.37;;;1.53;;
14247;SDS011;7208;49.826;6.004;2023-12-20T02:01:16;1.30;;;1.20;;
14247;SDS011;7208;49.826;6.004;2023-12-20T02:03:42;1.50;;;1.40;;
14247;SDS011;7208;49.826;6.004;2023-12-20T02:06:08;1.73;;;1.63;;
14247;SDS011;7208;49.826;6.004;2023-12-20T02:08:35;2.63;;;1.60;;
14247;SDS011;7208;49.826;6.004;2023-12-20T02:11:01;1.47;;;1.30;;
14247;SDS011;7208;49.826;6.004;2023-12-20T02:13:27;1.57;;;1.47;;
14247;SDS011;7208;49.826;6.004;2023-12-20T02:15:57;1.57;;;1.27;;
14247;SDS011;7208;49.826;6.004;2023-12-20T02:18:23;1.50;;;1.40;;
14247;SDS011;7208;49.826;6.004;2023-12-20T02:20:49;1.37;;;1.23;;
14247;SDS011;7208;49.826;6.004;2023-12-20T02:23:15;1.60;;;1.17;;
14247;SDS011;7208;49.826;6.004;2023-12-20T02:25:41;1.37;;;1.27;;
14247;SDS011;7208;49.826;6.004;2023-12-20T02:28:07;1.30;;;1.03;;
14247;SDS011;7208;49.826;6.004;2023-12-20T02:30:33;1.70;;;1.60;;
14247;SDS011;7208;49.826;6.004;2023-12-20T02:32:59;1.70;;;1.60;;
14247;SDS011;7208;49.826;6.004;2023-12-20T02:35:26;2.90;;;1.77;;
14247;SDS011;7208;49.826;6.004;2023-12-20T02:37:52;1.57;;;1.47;;
14247;SDS011;7208;49.826;6.004;2023-12-20T02:40:18;1.83;;;1.70;;
14247;SDS011;7208;49.826;6.004;2023-12-20T02:42:44;5.47;;;1.53;;
14247;SDS011;7208;49.826;6.004;2023-12-20T02:45:10;4.67;;;1.53;;
14247;SDS011;7208;49.826;6.004;2023-12-20T02:47:36;1.53;;;0.80;;
14247;SDS011;7208;49.826;6.004;2023-12-20T02:50:03;1.07;;;0.97;;
14247;SDS011;7208;49.826;6.004;2023-12-20T02:52:29;1.27;;;1.27;;
14247;SDS011;7208;49.826;6.004;2023-12-20T02:54:55;1.30;;;1.20;;
14247;SDS011;7208;49.826;6.004;2023-12-20T02:57:21;3.97;;;1.20;;
14247;SDS011;7208;49.826;6.004;2023-12-20T02:59:47;1.00;;;1.00;;
14247;SDS011;7208;49.826;6.004;2023-12-20T03:02:13;3.53;;;1.43;;
14247;SDS011;7208;49.826;6.004;2023-12-20T03:04:39;4.17;;;1.17;;
14247;SDS011;7208;49.826;6.004;2023-12-20T03:07:05;2.43;;;1.17;;
14247;SDS011;7208;49.826;6.004;2023-12-20T03:09:31;6.97;;;1.50;;
14247;SDS011;7208;49.826;6.004;2023-12-20T03:11:57;1.07;;;1.00;;
14247;SDS011;7208;49.826;6.004;2023-12-20T03:14:23;3.93;;;1.17;;
14247;SDS011;7208;49.826;6.004;2023-12-20T03:16:49;4.00;;;1.03;;
14247;SDS011;7208;49.826;6.004;2023-12-20T03:19:16;3.40;;;0.90;;
14247;SDS011;7208;49.826;6.004;2023-12-20T03:21:42;1.00;;;0.93;;
14247;SDS011;7208;49.826;6.004;2023-12-20T03:24:08;3.07;;;1.30;;
14247;SDS011;7208;49.826;6.004;2023-12-20T03:26:34;1.97;;;1.33;;
14247;SDS011;7208;49.826;6.004;2023-12-20T03:29:00;3.70;;;0.83;;
14247;SDS011;7208;49.826;6.004;2023-12-20T03:31:26;4.60;;;1.47;;
14247;SDS011;7208;49.826;6.004;2023-12-20T03:33:52;5.37;;;1.20;;
14247;SDS011;7208;49.826;6.004;2023-12-20T03:36:19;1.03;;;0.80;;
14247;SDS011;7208;49.826;6.004;2023-12-20T03:38:45;1.23;;;1.13;;
14247;SDS011;7208;49.826;6.004;2023-12-20T03:41:11;2.93;;;0.93;;
14247;SDS011;7208;49.826;6.004;2023-12-20T03:43:37;2.80;;;1.13;;
14247;SDS011;7208;49.826;6.004;2023-12-20T03:46:03;1.00;;;1.00;;
14247;SDS011;7208;49.826;6.004;2023-12-20T03:48:30;5.50;;;1.10;;
14247;SDS011;7208;49.826;6.004;2023-12-20T03:50:56;0.93;;;0.93;;
14247;SDS011;7208;49.826;6.004;2023-12-20T03:53:22;2.90;;;1.43;;
14247;SDS011;7208;49.826;6.004;2023-12-20T03:55:48;2.03;;;1.20;;
14247;SDS011;7208;49.826;6.004;2023-12-20T03:58:14;3.17;;;1.10;;
14247;SDS011;7208;49.826;6.004;2023-12-20T04:00:40;1.17;;;1.07;;
14247;SDS011;7208;49.826;6.004;2023-12-20T04:03:07;1.67;;;1.53;;
14247;SDS011;7208;49.826;6.004;2023-12-20T04:05:33;1.73;;;1.30;;
14247;SDS011;7208;49.826;6.004;2023-12-20T04:07:59;3.00;;;1.10;;
14247;SDS011;7208;49.826;6.004;2023-12-20T04:10:25;1.70;;;0.90;;
14247;SDS011;7208;49.826;6.004;2023-12-20T04:12:51;1.10;;;1.00;;
14247;SDS011;7208;49.826;6.004;2023-12-20T04:15:18;2.00;;;0.90;;
14247;SDS011;7208;49.826;6.004;2023-12-20T04:17:44;3.20;;;1.50;;
14247;SDS011;7208;49.826;6.004;2023-12-20T04:20:10;3.63;;;1.40;;
14247;SDS011;7208;49.826;6.004;2023-12-20T04:22:36;1.83;;;1.30;;
14247;SDS011;7208;49.826;6.004;2023-12-20T04:25:02;3.53;;;1.20;;
14247;SDS011;7208;49.826;6.004;2023-12-20T04:27:28;5.77;;;1.13;;
14247;SDS011;7208;49.826;6.004;2023-12-20T04:29:54;1.50;;;1.30;;
14247;SDS011;7208;49.826;6.004;2023-12-20T04:32:20;1.40;;;1.30;;
14247;SDS011;7208;49.826;6.004;2023-12-20T04:34:46;7.20;;;1.80;;
14247;SDS011;7208;49.826;6.004;2023-12-20T04:37:12;3.33;;;1.60;;
14247;SDS011;7208;49.826;6.004;2023-12-20T04:39:38;2.40;;;1.40;;
14247;SDS011;7208;49.826;6.004;2023-12-20T04:42:06;4.50;;;1.87;;
14247;SDS011;7208;49.826;6.004;2023-12-20T04:44:32;3.17;;;1.47;;
14247;SDS011;7208;49.826;6.004;2023-12-20T04:46:58;4.97;;;1.87;;
14247;SDS011;7208;49.826;6.004;2023-12-20T04:49:25;5.10;;;2.97;;
14247;SDS011;7208;49.826;6.004;2023-12-20T04:51:51;4.57;;;2.30;;
14247;SDS011;7208;49.826;6.004;2023-12-20T04:54:17;3.13;;;1.90;;
14247;SDS011;7208;49.826;6.004;2023-12-20T04:56:43;1.57;;;1.47;;
14247;SDS011;7208;49.826;6.004;2023-12-20T04:59:09;4.47;;;2.10;;
14247;SDS011;7208;49.826;6.004;2023-12-20T05:01:35;4.13;;;1.97;;
14247;SDS011;7208;49.826;6.004;2023-12-20T05:04:01;2.43;;;1.60;;
14247;SDS011;7208;49.826;6.004;2023-12-20T05:06:27;4.37;;;2.07;;
14247;SDS011;7208;49.826;6.004;2023-12-20T05:08:53;5.18;;;3.30;;
14247;SDS011;7208;49.826;6.004;2023-12-20T05:11:19;4.53;;;2.43;;
14247;SDS011;7208;49.826;6.004;2023-12-20T05:13:45;5.10;;;2.10;;
14247;SDS011;7208;49.826;6.004;2023-12-20T05:16:11;4.50;;;1.70;;
14247;SDS011;7208;49.826;6.004;2023-12-20T05:18:39;5.73;;;1.77;;
14247;SDS011;7208;49.826;6.004;2023-12-20T05:21:17;1.47;;;1.37;;
14247;SDS011;7208;49.826;6.004;2023-12-20T05:23:43;4.97;;;2.17;;
14247;SDS011;7208;49.826;6.004;2023-12-20T05:26:09;9.87;;;2.03;;
14247;SDS011;7208;49.826;6.004;2023-12-20T05:28:35;3.40;;;1.70;;
14247;SDS011;7208;49.826;6.004;2023-12-20T05:31:01;4.03;;;2.17;;
14247;SDS011;7208;49.826;6.004;2023-12-20T05:33:28;3.70;;;2.00;;
14247;SDS011;7208;49.826;6.004;2023-12-20T05:35:54;3.80;;;1.63;;
14247;SDS011;7208;49.826;6.004;2023-12-20T05:38:20;3.20;;;1.20;;
14247;SDS011;7208;49.826;6.004;2023-12-20T05:40:46;2.40;;;1.30;;
14247;SDS011;7208;49.826;6.004;2023-12-20T05:43:12;4.23;;;2.00;;
14247;SDS011;7208;49.826;6.004;2023-12-20T05:45:38;5.47;;;1.67;;
14247;SDS011;7208;49.826;6.004;2023-12-20T05:48:04;2.80;;;1.70;;
14247;SDS011;7208;49.826;6.004;2023-12-20T05:50:30;5.33;;;1.67;;
14247;SDS011;7208;49.826;6.004;2023-12-20T05:52:56;1.47;;;1.37;;
14247;SDS011;7208;49.826;6.004;2023-12-20T05:55:22;2.30;;;1.07;;
14247;SDS011;7208;49.826;6.004;2023-12-20T05:57:48;2.53;;;0.80;;
14247;SDS011;7208;49.826;6.004;2023-12-20T06:00:14;5.73;;;1.70;;
14247;SDS011;7208;49.826;6.004;2023-12-20T06:02:40;7.10;;;1.50;;
14247;SDS011;7208;49.826;6.004;2023-12-20T06:05:07;5.80;;;1.50;;
14247;SDS011;7208;49.826;6.004;2023-12-20T06:07:33;4.40;;;1.70;;
14247;SDS011;7208;49.826;6.004;2023-12-20T06:09:59;1.73;;;1.53;;
14247;SDS011;7208;49.826;6.004;2023-12-20T06:12:25;2.07;;;1.50;;
14247;SDS011;7208;49.826;6.004;2023-12-20T06:14:55;1.47;;;1.20;;
14247;SDS011;7208;49.826;6.004;2023-12-20T06:17:22;1.87;;;1.37;;
14247;SDS011;7208;49.826;6.004;2023-12-20T06:19:48;2.17;;;1.20;;
14247;SDS011;7208;49.826;6.004;2023-12-20T06:22:15;5.30;;;2.77;;
14247;SDS011;7208;49.826;6.004;2023-12-20T06:24:41;5.37;;;1.30;;
14247;SDS011;7208;49.826;6.004;2023-12-20T06:27:07;5.00;;;1.50;;
14247;SDS011;7208;49.826;6.004;2023-12-20T06:29:33;4.43;;;2.40;;
14247;SDS011;7208;49.826;6.004;2023-12-20T06:31:59;6.90;;;1.50;;
14247;SDS011;7208;49.826;6.004;2023-12-20T06:34:26;2.30;;;1.60;;
14247;SDS011;7208;49.826;6.004;2023-12-20T06:36:52;1.97;;;1.77;;
14247;SDS011;7208;49.826;6.004;2023-12-20T06:39:18;1.07;;;0.97;;
14247;SDS011;7208;49.826;6.004;2023-12-20T06:41:44;4.07;;;1.23;;
14247;SDS011;7208;49.826;6.004;2023-12-20T06:44:10;2.30;;;1.70;;
14247;SDS011;7208;49.826;6.004;2023-12-20T06:46:36;6.23;;;1.63;;
14247;SDS011;7208;49.826;6.004;2023-12-20T06:49:02;12.13;;;1.83;;
14247;SDS011;7208;49.826;6.004;2023-12-20T06:51:28;1.73;;;1.57;;
14247;SDS011;7208;49.826;6.004;2023-12-20T06:53:55;6.93;;;2.50;;
14247;SDS011;7208;49.826;6.004;2023-12-20T06:56:21;4.63;;;1.67;;
14247;SDS011;7208;49.826;6.004;2023-12-20T06:58:48;1.80;;;1.53;;
14247;SDS011;7208;49.826;6.004;2023-12-20T07:01:14;1.90;;;1.23;;
14247;SDS011;7208;49.826;6.004;2023-12-20T07:03:41;3.30;;;1.60;;
14247;SDS011;7208;49.826;6.004;2023-12-20T07:06:07;4.07;;;1.63;;
14247;SDS011;7208;49.826;6.004;2023-12-20T07:08:33;1.67;;;1.53;;
14247;SDS011;7208;49.826;6.004;2023-12-20T07:10:59;2.27;;;1.70;;
14247;SDS011;7208;49.826;6.004;2023-12-20T07:13:25;3.20;;;1.90;;
14247;SDS011;7208;49.826;6.004;2023-12-20T07:15:51;3.63;;;1.60;;
14247;SDS011;7208;49.826;6.004;2023-12-20T07:18:17;3.60;;;2.10;;
14247;SDS011;7208;49.826;6.004;2023-12-20T07:20:43;5.40;;;2.10;;
14247;SDS011;7208;49.826;6.004;2023-12-20T07:23:09;3.87;;;1.73;;
14247;SDS011;7208;49.826;6.004;2023-12-20T07:25:36;1.60;;;1.50;;
14247;SDS011;7208;49.826;6.004;2023-12-20T07:28:02;2.67;;;1.67;;
14247;SDS011;7208;49.826;6.004;2023-12-20T07:30:28;7.43;;;2.10;;
14247;SDS011;7208;49.826;6.004;2023-12-20T07:32:54;2.33;;;1.70;;
14247;SDS011;7208;49.826;6.004;2023-12-20T07:35:20;2.07;;;1.37;;
14247;SDS011;7208;49.826;6.004;2023-12-20T07:37:46;3.07;;;2.17;;
14247;SDS011;7208;49.826;6.004;2023-12-20T07:40:12;4.30;;;2.43;;
14247;SDS011;7208;49.826;6.004;2023-12-20T07:42:38;3.00;;;2.30;;
14247;SDS011;7208;49.826;6.004;2023-12-20T07:45:04;6.07;;;2.27;;
14247;SDS011;7208;49.826;6.004;2023-12-20T07:47:31;2.37;;;2.17;;
14247;SDS011;7208;49.826;6.004;2023-12-20T07:49:59;5.87;;;2.70;;
14247;SDS011;7208;49.826;6.004;2023-12-20T07:52:25;3.87;;;2.07;;
14247;SDS011;7208;49.826;6.004;2023-12-20T07:54:51;2.93;;;2.67;;
14247;SDS011;7208;49.826;6.004;2023-12-20T07:57:17;4.53;;;1.53;;
14247;SDS011;7208;49.826;6.004;2023-12-20T07:59:43;1.63;;;1.50;;
14247;SDS011;7208;49.826;6.004;2023-12-20T08:02:09;9.30;;;2.17;;
14247;SDS011;7208;49.826;6.004;2023-12-20T08:04:35;4.63;;;2.20;;
14247;SDS011;7208;49.826;6.004;2023-12-20T08:07:01;2.93;;;1.80;;
14247;SDS011;7208;49.826;6.004;2023-12-20T08:09:27;2.03;;;1.93;;
14247;SDS011;7208;49.826;6.004;2023-12-20T08:11:54;5.93;;;2.03;;
14247;SDS011;7208;49.826;6.004;2023-12-20T08:14:20;4.83;;;2.03;;
14247;SDS011;7208;49.826;6.004;2023-12-20T08:16:46;7.27;;;2.60;;
14247;SDS011;7208;49.826;6.004;2023-12-20T08:19:12;2.20;;;1.90;;
14247;SDS011;7208;49.826;6.004;2023-12-20T08:21:38;7.40;;;2.17;;
14247;SDS011;7208;49.826;6.004;2023-12-20T08:24:05;5.23;;;2.20;;
14247;SDS011;7208;49.826;6.004;2023-12-20T08:26:31;3.70;;;2.23;;
14247;SDS011;7208;49.826;6.004;2023-12-20T08:28:57;3.97;;;2.33;;
14247;SDS011;7208;49.826;6.004;2023-12-20T08:31:23;6.97;;;2.70;;
14247;SDS011;7208;49.826;6.004;2023-12-20T08:33:49;8.03;;;2.33;;
14247;SDS011;7208;49.826;6.004;2023-12-20T08:36:16;3.30;;;2.20;;
14247;SDS011;7208;49.826;6.004;2023-12-20T08:38:43;2.27;;;2.07;;
14247;SDS011;7208;49.826;6.004;2023-12-20T08:41:09;4.57;;;2.80;;
14247;SDS011;7208;49.826;6.004;2023-12-20T08:43:35;4.90;;;3.30;;
14247;SDS011;7208;49.826;6.004;2023-12-20T08:46:01;2.60;;;2.10;;
14247;SDS011;7208;49.826;6.004;2023-12-20T08:48:28;3.67;;;2.40;;
14247;SDS011;7208;49.826;6.004;2023-12-20T08:50:54;6.37;;;2.27;;
14247;SDS011;7208;49.826;6.004;2023-12-20T08:53:20;11.60;;;1.70;;
14247;SDS011;7208;49.826;6.004;2023-12-20T08:55:46;6.73;;;2.13;;
14247;SDS011;7208;49.826;6.004;2023-12-20T08:58:13;2.57;;;2.33;;
14247;SDS011;7208;49.826;6.004;2023-12-20T09:00:39;2.20;;;1.47;;
14247;SDS011;7208;49.826;6.004;2023-12-20T09:03:05;4.03;;;2.30;;
14247;SDS011;7208;49.826;6.004;2023-12-20T09:05:31;3.37;;;2.27;;
14247;SDS011;7208;49.826;6.004;2023-12-20T09:07:57;3.10;;;2.03;;
14247;SDS011;7208;49.826;6.004;2023-12-20T09:10:23;2.33;;;2.10;;
14247;SDS011;7208;49.826;6.004;2023-12-20T09:12:50;2.23;;;2.03;;
14247;SDS011;7208;49.826;6.004;2023-12-20T09:15:16;6.20;;;1.80;;
14247;SDS011;7208;49.826;6.004;2023-12-20T09:17:42;5.00;;;1.67;;
14247;SDS011;7208;49.826;6.004;2023-12-20T09:20:09;6.17;;;2.20;;
14247;SDS011;7208;49.826;6.004;2023-12-20T09:22:35;7.20;;;2.23;;
14247;SDS011;7208;49.826;6.004;2023-12-20T09:25:03;9.23;;;3.07;;
14247;SDS011;7208;49.826;6.004;2023-12-20T09:27:29;6.33;;;2.30;;
14247;SDS011;7208;49.826;6.004;2023-12-20T09:29:55;2.63;;;1.50;;
14247;SDS011;7208;49.826;6.004;2023-12-20T09:32:23;5.83;;;2.07;;
14247;SDS011;7208;49.826;6.004;2023-12-20T09:34:49;7.90;;;2.23;;
14247;SDS011;7208;49.826;6.004;2023-12-20T09:37:15;4.83;;;2.00;;
14247;SDS011;7208;49.826;6.004;2023-12-20T09:39:41;1.67;;;1.40;;
14247;SDS011;7208;49.826;6.004;2023-12-20T09:42:09;4.60;;;1.53;;
14247;SDS011;7208;49.826;6.004;2023-12-20T09:44:37;3.47;;;1.60;;
14247;SDS011;7208;49.826;6.004;2023-12-20T09:47:07;3.57;;;1.40;;
14247;SDS011;7208;49.826;6.004;2023-12-20T09:49:33;4.00;;;1.23;;
14247;SDS011;7208;49.826;6.004;2023-12-20T09:52:00;4.27;;;1.43;;
14247;SDS011;7208;49.826;6.004;2023-12-20T09:54:26;2.23;;;1.40;;
14247;SDS011;7208;49.826;6.004;2023-12-20T09:56:54;1.43;;;0.97;;
14247;SDS011;7208;49.826;6.004;2023-12-20T09:59:20;4.87;;;1.50;;
14247;SDS011;7208;49.826;6.004;2023-12-20T10:01:47;5.43;;;1.53;;
14247;SDS011;7208;49.826;6.004;2023-12-20T10:04:15;8.10;;;1.47;;
14247;SDS011;7208;49.826;6.004;2023-12-20T10:06:42;1.80;;;1.20;;
14247;SDS011;7208;49.826;6.004;2023-12-20T10:09:09;5.30;;;0.90;;
14247;SDS011;7208;49.826;6.004;2023-12-20T10:11:36;1.77;;;1.47;;
14247;SDS011;7208;49.826;6.004;2023-12-20T10:14:05;1.53;;;0.97;;
14247;SDS011;7208;49.826;6.004;2023-12-20T10:16:32;4.13;;;1.00;;
14247;SDS011;7208;49.826;6.004;2023-12-20T10:18:58;3.53;;;1.00;;
14247;SDS011;7208;49.826;6.004;2023-12-20T10:21:25;1.17;;;1.00;;
14247;SDS011;7208;49.826;6.004;2023-12-20T10:23:52;4.47;;;1.30;;
14247;SDS011;7208;49.826;6.004;2023-12-20T10:28:49;5.33;;;1.10;;
14247;SDS011;7208;49.826;6.004;2023-12-20T10:31:32;1.73;;;1.27;;
14247;SDS011;7208;49.826;6.004;2023-12-20T10:33:59;3.10;;;0.93;;
14247;SDS011;7208;49.826;6.004;2023-12-20T10:36:25;3.03;;;1.27;;
14247;SDS011;7208;49.826;6.004;2023-12-20T10:38:52;5.43;;;1.00;;
14247;SDS011;7208;49.826;6.004;2023-12-20T10:41:20;3.30;;;1.30;;
14247;SDS011;7208;49.826;6.004;2023-12-20T10:43:51;4.33;;;1.37;;
14247;SDS011;7208;49.826;6.004;2023-12-20T10:46:18;3.73;;;1.70;;
14247;SDS011;7208;49.826;6.004;2023-12-20T10:48:45;6.73;;;0.77;;
14247;SDS011;7208;49.826;6.004;2023-12-20T10:51:11;2.33;;;1.13;;
14247;SDS011;7208;49.826;6.004;2023-12-20T10:53:37;1.00;;;0.80;;
14247;SDS011;7208;49.826;6.004;2023-12-20T10:56:05;4.47;;;1.30;;
14247;SDS011;7208;49.826;6.004;2023-12-20T10:58:33;3.50;;;0.93;;
14247;SDS011;7208;49.826;6.004;2023-12-20T11:01:00;5.07;;;1.30;;
14247;SDS011;7208;49.826;6.004;2023-12-20T11:03:30;5.27;;;1.27;;
14247;SDS011;7208;49.826;6.004;2023-12-20T11:09:35;1.40;;;0.80;;
14247;SDS011;7208;49.826;6.004;2023-12-20T11:14:07;3.50;;;0.97;;
14247;SDS011;7208;49.826;6.004;2023-12-20T11:16:37;1.80;;;1.10;;
14247;SDS011;7208;49.826;6.004;2023-12-20T11:19:06;6.87;;;0.90;;
14247;SDS011;7208;49.826;6.004;2023-12-20T11:21:33;1.47;;;0.80;;
14247;SDS011;7208;49.826;6.004;2023-12-20T11:23:59;2.13;;;0.80;;
14247;SDS011;7208;49.826;6.004;2023-12-20T11:26:29;4.93;;;1.10;;
14247;SDS011;7208;49.826;6.004;2023-12-20T11:31:40;5.53;;;0.97;;
14247;SDS011;7208;49.826;6.004;2023-12-20T11:34:12;3.17;;;1.00;;
14247;SDS011;7208;49.826;6.004;2023-12-20T11:36:39;0.60;;;0.60;;
14247;SDS011;7208;49.826;6.004;2023-12-20T11:39:05;3.90;;;0.73;;
14247;SDS011;7208;49.826;6.004;2023-12-20T11:41:33;3.50;;;0.80;;
14247;SDS011;7208;49.826;6.004;2023-12-20T11:44:00;5.27;;;1.00;;
14247;SDS011;7208;49.826;6.004;2023-12-20T11:46:26;4.77;;;0.93;;
14247;SDS011;7208;49.826;6.004;2023-12-20T11:48:52;1.47;;;1.23;;
14247;SDS011;7208;49.826;6.004;2023-12-20T11:51:18;1.57;;;1.37;;
14247;SDS011;7208;49.826;6.004;2023-12-20T11:53:44;6.83;;;1.23;;
14247;SDS011;7208;49.826;6.004;2023-12-20T11:56:10;1.07;;;0.83;;
14247;SDS011;7208;49.826;6.004;2023-12-20T11:58:37;4.37;;;0.97;;
14247;SDS011;7208;49.826;6.004;2023-12-20T12:01:03;2.93;;;0.60;;
14247;SDS011;7208;49.826;6.004;2023-12-20T12:03:32;4.50;;;1.10;;
14247;SDS011;7208;49.826;6.004;2023-12-20T12:05:58;3.50;;;1.00;;
14247;SDS011;7208;49.826;6.004;2023-12-20T12:08:25;6.17;;;1.13;;
14247;SDS011;7208;49.826;6.004;2023-12-20T12:10:51;2.17;;;1.70;;
14247;SDS011;7208;49.826;6.004;2023-12-20T12:13:18;2.40;;;0.90;;
14247;SDS011;7208;49.826;6.004;2023-12-20T12:15:44;3.20;;;1.27;;
14247;SDS011;7208;49.826;6.004;2023-12-20T12:18:10;2.30;;;0.80;;
14247;SDS011;7208;49.826;6.004;2023-12-20T12:20:36;2.63;;;0.87;;
14247;SDS011;7208;49.826;6.004;2023-12-20T12:23:03;2.10;;;0.90;;
14247;SDS011;7208;49.826;6.004;2023-12-20T12:25:29;1.50;;;0.90;;
14247;SDS011;7208;49.826;6.004;2023-12-20T12:27:56;5.13;;;0.80;;
14247;SDS011;7208;49.826;6.004;2023-12-20T12:30:23;2.77;;;1.40;;
14247;SDS011;7208;49.826;6.004;2023-12-20T12:32:52;0.53;;;0.53;;
14247;SDS011;7208;49.826;6.004;2023-12-20T12:35:19;2.30;;;1.10;;
14247;SDS011;7208;49.826;6.004;2023-12-20T12:37:45;1.73;;;1.20;;
14247;SDS011;7208;49.826;6.004;2023-12-20T12:40:12;4.00;;;1.00;;
14247;SDS011;7208;49.826;6.004;2023-12-20T12:42:39;1.70;;;1.30;;
14247;SDS011;7208;49.826;6.004;2023-12-20T12:45:05;1.93;;;1.30;;
14247;SDS011;7208;49.826;6.004;2023-12-20T12:47:32;1.63;;;1.40;;
14247;SDS011;7208;49.826;6.004;2023-12-20T12:49:58;4.23;;;2.57;;
14247;SDS011;7208;49.826;6.004;2023-12-20T12:52:24;3.23;;;1.50;;
14247;SDS011;7208;49.826;6.004;2023-12-20T12:54:51;2.33;;;1.37;;
14247;SDS011;7208;49.826;6.004;2023-12-20T12:57:18;8.67;;;1.27;;
14247;SDS011;7208;49.826;6.004;2023-12-20T12:59:44;1.60;;;1.33;;
14247;SDS011;7208;49.826;6.004;2023-12-20T13:02:13;2.00;;;1.60;;
14247;SDS011;7208;49.826;6.004;2023-12-20T13:04:40;2.23;;;1.27;;
14247;SDS011;7208;49.826;6.004;2023-12-20T13:07:06;5.03;;;1.40;;
14247;SDS011;7208;49.826;6.004;2023-12-20T13:09:33;1.43;;;1.20;;
14247;SDS011;7208;49.826;6.004;2023-12-20T13:11:59;1.30;;;0.93;;
14247;SDS011;7208;49.826;6.004;2023-12-20T13:14:28;1.90;;;1.37;;
14247;SDS011;7208;49.826;6.004;2023-12-20T13:16:54;5.23;;;1.47;;
14247;SDS011;7208;49.826;6.004;2023-12-20T13:19:21;3.50;;;1.63;;
14247;SDS011;7208;49.826;6.004;2023-12-20T13:21:47;2.43;;;1.50;;
14247;SDS011;7208;49.826;6.004;2023-12-20T13:24:13;3.97;;;1.63;;
14247;SDS011;7208;49.826;6.004;2023-12-20T13:26:39;1.73;;;1.10;;
14247;SDS011;7208;49.826;6.004;2023-12-20T13:29:05;1.93;;;1.20;;
14247;SDS011;7208;49.826;6.004;2023-12-20T13:31:32;4.90;;;2.00;;
14247;SDS011;7208;49.826;6.004;2023-12-20T13:33:58;1.97;;;1.70;;
14247;SDS011;7208;49.826;6.004;2023-12-20T13:36:24;3.70;;;1.80;;
14247;SDS011;7208;49.826;6.004;2023-12-20T13:38:50;3.03;;;1.53;;
14247;SDS011;7208;49.826;6.004;2023-12-20T13:41:16;7.67;;;1.93;;
14247;SDS011;7208;49.826;6.004;2023-12-20T13:43:42;3.80;;;1.60;;
14247;SDS011;7208;49.826;6.004;2023-12-20T13:46:08;3.70;;;1.53;;
14247;SDS011;7208;49.826;6.004;2023-12-20T13:48:34;6.40;;;1.20;;
14247;SDS011;7208;49.826;6.004;2023-12-20T13:51:00;2.10;;;1.60;;
14247;SDS011;7208;49.826;6.004;2023-12-20T13:53:27;4.27;;;1.77;;
14247;SDS011;7208;49.826;6.004;2023-12-20T13:55:53;2.23;;;1.53;;
14247;SDS011;7208;49.826;6.004;2023-12-20T13:58:20;2.10;;;1.20;;
14247;SDS011;7208;49.826;6.004;2023-12-20T14:00:46;2.43;;;1.70;;
14247;SDS011;7208;49.826;6.004;2023-12-20T14:03:12;2.73;;;1.60;;
14247;SDS011;7208;49.826;6.004;2023-12-20T14:05:38;4.60;;;1.70;;
14247;SDS011;7208;49.826;6.004;2023-12-20T14:08:04;2.73;;;1.43;;
14247;SDS011;7208;49.826;6.004;2023-12-20T14:10:30;2.87;;;1.43;;
14247;SDS011;7208;49.826;6.004;2023-12-20T14:12:56;3.47;;;2.00;;
14247;SDS011;7208;49.826;6.004;2023-12-20T14:15:22;4.93;;;1.77;;
14247;SDS011;7208;49.826;6.004;2023-12-20T14:17:50;3.60;;;1.90;;
14247;SDS011;7208;49.826;6.004;2023-12-20T14:20:16;3.47;;;1.77;;
14247;SDS011;7208;49.826;6.004;2023-12-20T14:22:43;1.57;;;1.23;;
14247;SDS011;7208;49.826;6.004;2023-12-20T14:25:15;2.37;;;1.13;;
14247;SDS011;7208;49.826;6.004;2023-12-20T14:27:41;2.67;;;1.23;;
14247;SDS011;7208;49.826;6.004;2023-12-20T14:30:08;5.27;;;1.60;;
14247;SDS011;7208;49.826;6.004;2023-12-20T14:32:35;4.77;;;1.53;;
14247;SDS011;7208;49.826;6.004;2023-12-20T14:35:05;1.87;;;1.67;;
14247;SDS011;7208;49.826;6.004;2023-12-20T14:37:31;3.47;;;1.10;;
14247;SDS011;7208;49.826;6.004;2023-12-20T14:39:57;5.30;;;1.87;;
14247;SDS011;7208;49.826;6.004;2023-12-20T14:42:23;7.13;;;2.00;;
14247;SDS011;7208;49.826;6.004;2023-12-20T14:44:49;3.33;;;1.60;;
14247;SDS011;7208;49.826;6.004;2023-12-20T14:47:17;2.23;;;1.60;;
14247;SDS011;7208;49.826;6.004;2023-12-20T14:49:43;2.93;;;1.60;;
14247;SDS011;7208;49.826;6.004;2023-12-20T14:52:09;5.43;;;1.40;;
14247;SDS011;7208;49.826;6.004;2023-12-20T14:54:36;2.30;;;2.10;;
14247;SDS011;7208;49.826;6.004;2023-12-20T14:57:02;3.83;;;1.73;;
14247;SDS011;7208;49.826;6.004;2023-12-20T14:59:28;1.80;;;1.37;;
14247;SDS011;7208;49.826;6.004;2023-12-20T15:01:55;5.00;;;2.00;;
14247;SDS011;7208;49.826;6.004;2023-12-20T15:04:21;1.50;;;1.40;;
14247;SDS011;7208;49.826;6.004;2023-12-20T15:06:53;2.03;;;1.60;;